createdAt,value
2023-05-12T08:22:13.853Z,30.69
2023-05-12T08:24:41.598Z,30.06
2023-05-12T08:27:09.956Z,29.24
2023-05-12T08:29:38.704Z,28.52
2023-05-12T08:32:12.236Z,29.72
2023-05-12T08:34:39.458Z,30.61
2023-05-12T08:37:06.661Z,31.20
2023-05-12T08:39:34.778Z,31.39
2023-05-12T08:42:23.523Z,31.82
2023-05-12T08:44:50.994Z,32.50
2023-05-12T08:47:18.996Z,32.29
2023-05-12T08:49:46.420Z,31.83
2023-05-12T08:52:19.133Z,32.12
2023-05-12T08:54:55.444Z,32.38
2023-05-12T08:57:23.985Z,32.11
2023-05-12T08:59:53.954Z,30.87
2023-05-12T09:02:23.206Z,30.38
2023-05-12T09:04:55.351Z,30.81
2023-05-12T09:07:24.717Z,30.80
2023-05-12T09:09:56.248Z,31.38
2023-05-12T09:12:23.611Z,31.81
2023-05-12T09:15:01.261Z,32.10
2023-05-12T09:17:28.894Z,31.52
2023-05-12T09:19:56.323Z,30.77
2023-05-12T09:22:36.123Z,30.27
2023-05-12T09:25:22.044Z,30.28
2023-05-12T09:27:54.101Z,30.88
2023-05-12T09:30:31.977Z,30.99
2023-05-12T09:33:07.403Z,31.26
2023-05-12T09:35:42.331Z,31.41
2023-05-12T09:38:11.364Z,31.49
2023-05-12T09:40:38.868Z,31.49
2023-05-12T09:43:06.687Z,31.23
2023-05-12T09:45:37.671Z,31.09
2023-05-12T09:48:11.821Z,29.79
2023-05-12T09:50:49.373Z,29.32
2023-05-12T09:53:20.647Z,29.15
2023-05-12T09:55:48.268Z,29.20
2023-05-12T09:58:19.907Z,29.19
2023-05-12T10:03:18.902Z,30.15
2023-05-12T10:05:58.700Z,30.17
2023-05-12T10:08:30.777Z,29.78
2023-05-12T10:10:58.146Z,29.29
2023-05-12T10:13:26.687Z,28.79
2023-05-12T10:15:57.432Z,28.01
2023-05-12T10:18:25.854Z,27.33
2023-05-12T10:20:56.535Z,26.93
2023-05-12T10:23:24.032Z,26.88
2023-05-12T10:25:51.536Z,26.90
2023-05-12T10:28:20.490Z,27.10
2023-05-12T10:30:51.426Z,27.32
2023-05-12T10:33:19.347Z,27.48
2023-05-12T10:35:48.582Z,27.33
2023-05-12T10:38:17.241Z,26.81
2023-05-12T10:40:58.991Z,26.57
2023-05-12T10:43:38.804Z,26.49
2023-05-12T10:46:07.773Z,26.47
2023-05-12T10:48:35.253Z,26.25
2023-05-12T10:51:10.322Z,26.42
2023-05-12T10:53:48.108Z,26.16
2023-05-12T10:56:25.038Z,26.04
2023-05-12T10:59:12.002Z,26.14
2023-05-12T11:02:02.390Z,26.24
2023-05-12T11:04:48.220Z,26.31
2023-05-12T11:07:18.841Z,26.26
2023-05-12T11:09:57.749Z,26.32
2023-05-12T11:12:36.582Z,26.38
2023-05-12T11:18:31.317Z,26.29
2023-05-12T11:20:58.542Z,26.23
2023-05-12T11:23:29.134Z,26.40
2023-05-12T11:25:57.523Z,26.46
2023-05-12T11:28:25.017Z,26.40
2023-05-12T11:30:54.983Z,26.43
2023-05-12T11:33:23.194Z,26.23
2023-05-12T11:35:50.612Z,26.16
2023-05-12T11:38:18.550Z,26.02
2023-05-12T11:40:45.909Z,25.95
2023-05-12T11:43:15.473Z,25.93
2023-05-12T11:45:42.790Z,26.00
2023-05-12T11:48:15.116Z,25.80
2023-05-12T11:50:48.486Z,25.53
2023-05-12T11:53:17.509Z,25.13
2023-05-12T11:55:51.914Z,24.72
2023-05-12T11:58:24.803Z,24.81
2023-05-12T12:00:52.198Z,24.96
2023-05-12T12:03:19.700Z,25.21
2023-05-12T12:06:01.267Z,25.60
2023-05-12T12:08:28.962Z,26.04
2023-05-12T12:10:56.390Z,26.36
2023-05-12T12:13:24.428Z,26.62
2023-05-12T12:15:52.168Z,26.76
2023-05-12T12:18:20.372Z,26.47
2023-05-12T12:20:47.850Z,26.56
2023-05-12T12:23:15.152Z,26.62
2023-05-12T12:25:43.753Z,27.03
2023-05-12T12:28:11.328Z,27.07
2023-05-12T12:30:38.751Z,27.16
2023-05-12T12:33:06.190Z,27.09
2023-05-12T12:35:33.572Z,26.96
2023-05-12T12:38:00.942Z,26.86
2023-05-12T12:40:28.811Z,26.68
2023-05-12T12:42:56.287Z,26.45
2023-05-12T12:45:23.963Z,26.28
2023-05-12T12:47:55.198Z,26.26
2023-05-12T12:50:25.065Z,26.07
2023-05-12T12:52:53.720Z,25.87
2023-05-12T12:55:21.214Z,25.92
2023-05-12T12:57:48.688Z,25.93
2023-05-12T13:00:16.371Z,25.80
2023-05-12T13:02:43.637Z,25.63
2023-05-12T13:05:11.090Z,25.40
2023-05-12T13:07:38.354Z,25.14
2023-05-12T13:10:06.024Z,24.95
2023-05-12T13:12:33.346Z,24.83
2023-05-12T13:15:01.056Z,24.79
2023-05-12T13:17:28.707Z,24.69
2023-05-12T13:19:56.061Z,24.73
2023-05-12T13:22:23.359Z,24.78
2023-05-12T13:24:50.586Z,24.89
2023-05-12T13:27:18.243Z,25.08
2023-05-12T13:29:47.623Z,25.21
2023-05-12T13:32:16.409Z,25.27
2023-05-12T13:34:44.039Z,25.20
2023-05-12T13:37:11.367Z,25.23
2023-05-12T13:39:38.726Z,25.18
2023-05-12T13:42:06.552Z,25.31
2023-05-12T13:44:33.973Z,25.54
2023-05-12T13:47:01.407Z,25.33
2023-05-12T13:49:29.109Z,25.42
2023-05-12T13:51:56.539Z,25.50
2023-05-12T13:54:25.161Z,25.70
2023-05-12T13:56:52.505Z,25.90
2023-05-12T13:59:20.072Z,25.85
2023-05-12T14:01:47.568Z,25.64
2023-05-12T14:04:14.921Z,25.52
2023-05-12T14:06:42.159Z,25.31
2023-05-12T14:09:09.456Z,25.20
2023-05-12T14:11:37.181Z,25.08
2023-05-12T14:14:06.487Z,25.10
2023-05-12T14:16:33.951Z,25.05
2023-05-12T14:19:01.733Z,24.94
2023-05-12T14:21:29.630Z,24.89
2023-05-12T14:23:57.213Z,24.92
2023-05-12T14:26:26.221Z,24.89
2023-05-12T14:28:53.670Z,24.91
2023-05-12T14:31:21.524Z,24.96
2023-05-12T14:33:49.023Z,24.98
2023-05-12T14:36:16.332Z,24.92
2023-05-12T14:38:43.446Z,24.92
2023-05-12T14:41:11.379Z,24.86
2023-05-12T14:43:39.388Z,24.83
2023-05-12T14:46:07.440Z,24.75
2023-05-12T14:48:35.091Z,24.60
2023-05-12T14:51:03.537Z,24.38
2023-05-12T14:53:31.449Z,24.13
2023-05-12T14:55:58.588Z,23.96
2023-05-12T14:58:25.789Z,23.75
2023-05-12T15:00:53.463Z,23.52
2023-05-12T15:03:23.839Z,23.40
2023-05-12T15:08:21.853Z,23.37
2023-05-12T15:10:49.289Z,23.32
2023-05-12T15:13:20.384Z,23.24
2023-05-12T15:15:47.946Z,23.21
2023-05-12T15:18:15.300Z,23.16
2023-05-12T15:20:42.667Z,23.12
2023-05-12T15:23:10.079Z,23.09
2023-05-12T15:25:41.122Z,23.06
2023-05-12T15:28:08.816Z,23.04
2023-05-12T15:30:36.286Z,23.05
2023-05-12T15:33:04.470Z,23.10
2023-05-12T15:35:32.421Z,23.10
2023-05-12T15:37:59.753Z,23.05
2023-05-12T15:40:27.443Z,23.06
2023-05-12T15:42:54.884Z,23.05
2023-05-12T15:45:22.517Z,23.04
2023-05-12T15:47:50.173Z,22.97
2023-05-12T15:50:20.096Z,22.95
2023-05-12T15:52:47.670Z,22.86
2023-05-12T15:55:15.348Z,22.85
2023-05-12T15:57:42.721Z,22.79
2023-05-12T16:00:10.349Z,22.83
2023-05-12T16:02:40.448Z,22.84
2023-05-12T16:05:08.397Z,22.77
2023-05-12T16:07:35.994Z,22.68
2023-05-12T16:10:03.912Z,22.59
2023-05-12T16:12:31.648Z,22.53
2023-05-12T16:14:59.607Z,22.39
2023-05-12T16:17:28.120Z,22.27
2023-05-12T16:19:57.156Z,22.26
2023-05-12T16:22:24.450Z,22.18
2023-05-12T16:24:51.770Z,22.10
2023-05-12T16:27:18.945Z,22.05
2023-05-12T16:29:49.757Z,21.99
2023-05-12T16:32:17.694Z,21.85
2023-05-12T16:34:45.107Z,21.77
2023-05-12T16:37:12.396Z,21.75
2023-05-12T16:39:40.092Z,21.69
2023-05-12T16:42:07.669Z,21.64
2023-05-12T16:44:34.976Z,21.61
2023-05-12T16:47:02.298Z,21.54
2023-05-12T16:49:29.564Z,21.48
2023-05-12T16:51:56.840Z,21.42
2023-05-12T16:54:24.623Z,21.37
2023-05-12T16:56:51.985Z,21.37
2023-05-12T16:59:19.470Z,21.32
2023-05-12T17:01:47.441Z,21.25
2023-05-12T17:04:15.888Z,21.24
2023-05-12T17:06:44.610Z,21.15
2023-05-12T17:09:11.963Z,21.08
2023-05-12T17:11:39.618Z,21.00
2023-05-12T17:14:06.960Z,20.93
2023-05-12T17:16:34.173Z,20.84
2023-05-12T17:21:32.055Z,20.69
2023-05-12T17:23:59.443Z,20.59
2023-05-12T17:26:28.208Z,20.53
2023-05-12T17:28:56.257Z,20.46
2023-05-12T17:31:23.779Z,20.40
2023-05-12T17:33:51.047Z,20.32
2023-05-12T17:36:18.978Z,20.23
2023-05-12T17:38:46.497Z,20.15
2023-05-12T17:41:13.919Z,20.07
2023-05-12T17:43:41.847Z,19.98
2023-05-12T17:46:09.421Z,19.89
2023-05-12T17:48:38.867Z,19.84
2023-05-12T17:51:06.630Z,19.78
2023-05-12T17:53:34.792Z,19.75
2023-05-12T17:56:02.420Z,19.71
2023-05-12T17:58:29.808Z,19.67
2023-05-12T18:00:57.419Z,19.61
2023-05-12T18:03:24.931Z,19.56
2023-05-12T18:05:53.520Z,19.47
2023-05-12T18:08:20.903Z,19.38
2023-05-12T18:10:48.249Z,19.31
2023-05-12T18:13:16.182Z,19.23
2023-05-12T18:15:45.078Z,19.16
2023-05-12T18:18:15.143Z,19.08
2023-05-12T18:20:45.133Z,19.00
2023-05-12T18:23:12.348Z,18.93
2023-05-12T18:25:39.660Z,19.27
2023-05-12T18:28:07.828Z,19.30
2023-05-12T18:30:35.157Z,19.24
2023-05-12T18:33:02.552Z,19.19
2023-05-12T18:35:30.052Z,19.13
2023-05-12T18:37:57.720Z,19.06
2023-05-12T18:40:25.062Z,19.00
2023-05-12T18:42:52.591Z,18.94
2023-05-12T18:45:20.278Z,18.89
2023-05-12T18:47:48.036Z,18.82
2023-05-12T18:50:15.583Z,18.78
2023-05-12T18:52:44.135Z,18.73
2023-05-12T18:55:11.593Z,18.70
2023-05-12T18:57:38.961Z,18.69
2023-05-12T19:00:07.067Z,18.69
2023-05-12T19:02:34.894Z,18.66
2023-05-12T19:05:02.435Z,18.59
2023-05-12T19:07:30.256Z,18.55
2023-05-12T19:09:57.620Z,18.52
2023-05-12T19:12:25.458Z,18.49
2023-05-12T19:14:53.018Z,18.43
2023-05-12T19:17:20.373Z,18.37
2023-05-12T19:19:49.461Z,18.33
2023-05-12T19:22:16.754Z,18.31
2023-05-12T19:24:44.016Z,18.24
2023-05-12T19:27:11.307Z,18.21
2023-05-12T19:29:38.877Z,18.15
2023-05-12T19:32:06.683Z,18.11
2023-05-12T19:34:34.225Z,18.08
2023-05-12T19:37:01.595Z,18.04
2023-05-12T19:39:29.150Z,17.99
2023-05-12T19:41:56.415Z,17.98
2023-05-12T19:44:23.902Z,17.90
2023-05-12T19:46:51.926Z,17.85
2023-05-12T19:49:19.178Z,17.80
2023-05-12T19:51:46.649Z,17.76
2023-05-12T19:54:14.303Z,17.74
2023-05-12T19:56:41.737Z,17.72
2023-05-12T19:59:09.090Z,17.68
2023-05-12T20:01:36.402Z,17.65
2023-05-12T20:04:03.803Z,17.65
2023-05-12T20:06:33.824Z,17.54
2023-05-12T20:09:01.969Z,17.40
2023-05-12T20:11:29.300Z,17.37
2023-05-12T20:13:56.668Z,17.35
2023-05-12T20:16:24.056Z,17.31
2023-05-12T20:18:51.543Z,17.23
2023-05-12T20:21:19.601Z,17.21
2023-05-12T20:23:47.586Z,17.18
2023-05-12T20:26:18.903Z,17.17
2023-05-12T20:28:59.494Z,17.14
2023-05-12T20:31:37.338Z,17.13
2023-05-12T20:34:37.660Z,17.09
2023-05-12T20:37:08.081Z,17.08
2023-05-12T20:39:35.497Z,17.00
2023-05-12T20:42:04.153Z,16.97
2023-05-12T20:44:31.550Z,16.93
2023-05-12T20:46:58.983Z,16.92
2023-05-12T20:49:26.396Z,16.64
2023-05-12T20:51:53.688Z,16.28
2023-05-12T20:54:21.165Z,16.18
2023-05-12T20:56:48.533Z,16.13
2023-05-12T20:59:15.890Z,16.09
2023-05-12T21:01:43.209Z,16.06
2023-05-12T21:04:11.157Z,16.04
2023-05-12T21:06:38.556Z,16.00
2023-05-12T21:09:06.225Z,15.96
2023-05-12T21:11:33.643Z,15.94
2023-05-12T21:14:01.741Z,15.90
2023-05-12T21:16:29.316Z,15.86
2023-05-12T21:18:56.955Z,15.86
2023-05-12T21:21:24.303Z,15.87
2023-05-12T21:23:51.697Z,15.86
2023-05-12T21:26:19.404Z,15.84
2023-05-12T21:28:47.748Z,15.81
2023-05-12T21:31:15.200Z,15.77
2023-05-12T21:33:42.528Z,15.75
2023-05-12T21:36:09.992Z,15.71
2023-05-12T21:38:37.412Z,15.68
2023-05-12T21:41:05.166Z,15.64
2023-05-12T21:43:32.571Z,15.60
2023-05-12T21:46:04.743Z,15.56
2023-05-12T21:48:33.599Z,15.52
2023-05-12T21:51:01.973Z,15.45
2023-05-12T21:53:29.588Z,15.41
2023-05-12T21:55:57.169Z,15.38
2023-05-12T21:58:24.603Z,15.31
2023-05-12T22:00:52.621Z,15.25
2023-05-12T22:03:51.983Z,15.17
2023-05-12T22:06:19.699Z,15.23
2023-05-12T22:08:47.101Z,15.23
2023-05-12T22:11:14.932Z,15.22
2023-05-12T22:13:42.427Z,15.24
2023-05-12T22:16:09.851Z,15.24
2023-05-12T22:18:38.144Z,15.21
2023-05-12T22:21:05.502Z,15.15
2023-05-12T22:23:32.901Z,15.11
2023-05-12T22:26:00.217Z,15.07
2023-05-12T22:28:27.459Z,15.04
2023-05-12T22:30:54.820Z,14.99
2023-05-12T22:33:22.192Z,14.96
2023-05-12T22:35:49.533Z,14.91
2023-05-12T22:38:18.119Z,14.89
2023-05-12T22:40:52.487Z,14.85
2023-05-12T22:43:33.055Z,14.93
2023-05-12T22:46:21.097Z,14.90
2023-05-12T22:48:48.400Z,14.74
2023-05-12T22:51:16.179Z,14.61
2023-05-12T22:53:43.461Z,14.55
2023-05-12T22:56:10.828Z,14.51
2023-05-12T22:58:38.147Z,14.47
2023-05-12T23:01:06.222Z,14.43
2023-05-12T23:03:33.829Z,14.41
2023-05-12T23:06:01.326Z,14.40
2023-05-12T23:08:28.926Z,14.37
2023-05-12T23:10:56.322Z,14.34
2023-05-12T23:13:23.553Z,14.31
2023-05-12T23:15:51.033Z,14.27
2023-05-12T23:18:19.652Z,14.24
2023-05-12T23:20:47.096Z,14.21
2023-05-12T23:23:14.387Z,14.19
2023-05-12T23:25:43.085Z,14.16
2023-05-12T23:28:11.926Z,14.10
2023-05-12T23:30:39.343Z,14.04
2023-05-12T23:33:06.768Z,14.00
2023-05-12T23:35:34.188Z,13.97
2023-05-12T23:38:01.860Z,13.95
2023-05-12T23:40:30.180Z,13.93
2023-05-12T23:42:57.468Z,13.90
2023-05-12T23:45:24.762Z,13.87
2023-05-12T23:47:52.118Z,13.83
2023-05-12T23:50:20.032Z,13.80
2023-05-12T23:52:47.806Z,13.77
2023-05-12T23:55:15.278Z,13.74
2023-05-12T23:57:42.675Z,13.71
